Skip Navigation Links Skip Navigation Links

Current Weather

Teterboro, N.J.

For information only: do not use for flight planning or navigation.
Latest weather
Observation time Saturday, June 6, 2020 6:51 PM EDT
Local time Saturday, June 6, 2020 7:48 PM EDT
Flight conditions Visual Meteorological Conditions
Winds
Wind direction Northwest (310°)
Wind speed 14 mph
Wind gusting to 23 mph
Peak wind speed 32 mph, 6:33 PM
Peak wind direction North-Northwest (330°)
Visibility 10 mi.
Sky condition
Ceiling unlimited
Sky clear
Temperature 83°F
Dewpoint 47°F
Altimeter 29.70 in.Hg
Derived measurements
Relative humidity 29%
Heat index 83°F
Density altitude 1949 ft.
Sea-level pressure 29.70 in.Hg
Remarks
Automated weather observing station with precipitation discriminator.
METAR KTEB 062251Z 31012G20KT 10SM CLR 28/08 A2970 RMK AO2 PK WND 33028/2233 SLP057 T02830083

Settings

Location code

InnerDrive.Weather 4.0.6770.0 Release CLR 4.0.30319.42000
Copyright ©2018 Inner Drive Technology. All rights reserved. Portions Copyright ©1986-2018 David Braverman.

Find weather

Site navigation


Skip Navigation Links

Place info

Page info

PayPal - The safer, easier way to pay online!

Return home.

Copyright ©2020 Inner Drive Technology. Purveyors of fine, hand-crafted computer software. Page printed 2020-06-06T23:48:24 UTC.